createdAt,value
2017-12-21T00:02:20.320Z,17.67
2017-12-21T00:04:48.047Z,19.10
2017-12-21T00:07:15.727Z,19.60
2017-12-21T00:09:43.463Z,16.67
2017-12-21T00:12:11.248Z,16.83
2017-12-21T00:14:38.934Z,18.23
2017-12-21T00:17:06.659Z,21.60
2017-12-21T00:19:34.422Z,18.60
2017-12-21T00:22:02.164Z,16.37
2017-12-21T00:24:29.839Z,19.60
2017-12-21T00:26:57.630Z,18.73
2017-12-21T00:29:25.306Z,17.57
2017-12-21T00:31:53.036Z,18.10
2017-12-21T00:34:20.819Z,15.93
2017-12-21T00:36:48.496Z,14.90
2017-12-21T00:39:16.173Z,14.73
2017-12-21T00:41:43.913Z,17.93
2017-12-21T00:44:11.652Z,16.80
2017-12-21T00:46:39.327Z,16.00
2017-12-21T00:49:07.223Z,15.20
2017-12-21T00:51:34.890Z,14.50
2017-12-21T00:54:02.556Z,11.87
2017-12-21T00:56:30.283Z,12.10
2017-12-21T00:58:57.959Z,13.60
2017-12-21T01:01:25.630Z,16.33
2017-12-21T01:03:53.355Z,12.40
2017-12-21T01:06:21.092Z,12.83
2017-12-21T01:08:48.769Z,11.83
2017-12-21T01:11:16.496Z,12.60
2017-12-21T01:13:44.166Z,11.43
2017-12-21T01:16:11.775Z,13.67
2017-12-21T01:18:39.438Z,15.07
2017-12-21T01:21:07.043Z,13.50
2017-12-21T01:23:34.651Z,14.63
2017-12-21T01:26:02.371Z,12.47
2017-12-21T01:28:29.972Z,13.50
2017-12-21T01:30:57.574Z,11.30
2017-12-21T01:33:25.239Z,13.73
2017-12-21T01:35:52.903Z,13.00
2017-12-21T01:38:20.502Z,13.50
2017-12-21T01:40:48.167Z,12.67
2017-12-21T01:43:15.782Z,14.20
2017-12-21T01:45:43.401Z,12.20
2017-12-21T01:48:11.072Z,11.67
2017-12-21T01:50:38.738Z,12.90
2017-12-21T01:53:06.348Z,12.13
2017-12-21T01:55:34.010Z,12.70
2017-12-21T01:58:01.752Z,10.90
2017-12-21T02:00:29.355Z,13.20
2017-12-21T02:02:57.074Z,11.97
2017-12-21T02:05:24.733Z,26.57
2017-12-21T02:07:52.342Z,13.47
2017-12-21T02:10:20.080Z,10.27
2017-12-21T02:12:47.696Z,15.43
2017-12-21T02:15:15.303Z,12.33
2017-12-21T02:17:42.962Z,11.20
2017-12-21T02:20:10.635Z,14.10
2017-12-21T02:22:38.281Z,11.87
2017-12-21T02:25:06.028Z,12.10
2017-12-21T02:27:33.719Z,10.77
2017-12-21T02:30:01.333Z,13.20
2017-12-21T02:32:29.015Z,14.03
2017-12-21T02:34:56.632Z,12.70
2017-12-21T02:37:24.244Z,12.50
2017-12-21T02:39:51.920Z,9.63
2017-12-21T02:42:19.599Z,10.20
2017-12-21T02:44:47.217Z,9.47
2017-12-21T02:47:14.879Z,9.70
2017-12-21T02:49:42.486Z,9.20
2017-12-21T02:52:10.103Z,10.60
2017-12-21T02:54:37.774Z,11.37
2017-12-21T02:57:05.437Z,10.83
2017-12-21T02:59:33.043Z,12.07
2017-12-21T03:02:00.715Z,11.13
2017-12-21T03:04:28.387Z,12.03
2017-12-21T03:06:56.003Z,12.47
2017-12-21T03:09:23.672Z,12.17
2017-12-21T03:11:51.344Z,15.50
2017-12-21T03:14:18.972Z,12.07
2017-12-21T03:16:46.646Z,13.63
2017-12-21T03:19:14.308Z,14.70
2017-12-21T03:21:42.007Z,15.63
2017-12-21T03:24:09.682Z,16.53
2017-12-21T03:26:37.298Z,10.83
2017-12-21T03:29:04.964Z,11.27
2017-12-21T03:31:32.626Z,12.90
2017-12-21T03:34:00.292Z,11.57
2017-12-21T03:36:27.895Z,10.20
2017-12-21T03:38:55.559Z,12.70
2017-12-21T03:41:23.164Z,12.80
2017-12-21T03:43:50.771Z,11.40
2017-12-21T03:46:18.438Z,12.37
2017-12-21T03:48:46.102Z,12.00
2017-12-21T03:51:13.792Z,11.67
2017-12-21T03:53:41.461Z,13.53
2017-12-21T03:56:09.072Z,11.93
2017-12-21T03:58:36.675Z,12.57
2017-12-21T04:01:04.339Z,12.80
2017-12-21T04:03:31.943Z,11.27
2017-12-21T04:05:59.554Z,11.63
2017-12-21T04:08:27.222Z,13.03
2017-12-21T04:10:54.823Z,13.87
2017-12-21T04:13:22.459Z,13.60
2017-12-21T04:15:50.135Z,13.37
2017-12-21T04:18:17.742Z,13.97
2017-12-21T04:20:45.403Z,13.57
2017-12-21T04:23:13.115Z,12.77
2017-12-21T04:25:40.777Z,13.10
2017-12-21T04:28:08.383Z,13.23
2017-12-21T04:30:36.048Z,11.73
2017-12-21T04:33:03.646Z,12.60
2017-12-21T04:35:31.315Z,14.90
2017-12-21T04:37:58.970Z,14.40
2017-12-21T04:40:26.583Z,17.50
2017-12-21T04:42:54.260Z,12.13
2017-12-21T04:45:21.927Z,13.53
2017-12-21T04:47:49.527Z,14.00
2017-12-21T04:50:17.138Z,15.90
2017-12-21T04:52:44.879Z,15.30
2017-12-21T04:55:12.486Z,14.13
2017-12-21T04:57:40.100Z,13.80
2017-12-21T05:00:07.787Z,13.80
2017-12-21T05:02:35.395Z,12.73
2017-12-21T05:05:03.010Z,35.43
2017-12-21T05:07:30.663Z,36.40
2017-12-21T05:09:58.266Z,36.73
2017-12-21T05:12:25.874Z,23.13
2017-12-21T05:14:53.546Z,16.33
2017-12-21T05:17:21.163Z,23.77
2017-12-21T05:19:48.779Z,13.93
2017-12-21T05:22:16.459Z,17.40
2017-12-21T05:24:44.064Z,16.50
2017-12-21T05:27:11.675Z,18.97
2017-12-21T05:29:39.343Z,19.43
2017-12-21T05:32:06.963Z,15.60
2017-12-21T05:34:34.623Z,27.50
2017-12-21T05:37:02.335Z,70.67
2017-12-21T05:39:29.935Z,28.53
2017-12-21T05:41:57.534Z,18.60
2017-12-21T05:44:25.191Z,22.10
2017-12-21T05:46:52.856Z,19.30
2017-12-21T05:49:20.454Z,16.73
2017-12-21T05:51:48.123Z,16.03
2017-12-21T05:54:15.735Z,13.57
2017-12-21T05:56:43.394Z,19.70
2017-12-21T05:59:11.051Z,14.93
2017-12-21T06:01:38.715Z,14.40
2017-12-21T06:04:06.315Z,14.60
2017-12-21T06:06:33.970Z,14.70
2017-12-21T06:09:01.571Z,17.27
2017-12-21T06:11:29.231Z,16.60
2017-12-21T06:13:56.907Z,15.33
2017-12-21T06:16:24.513Z,34.30
2017-12-21T06:18:52.114Z,17.27
2017-12-21T06:21:19.823Z,19.00
2017-12-21T06:23:47.428Z,13.60
2017-12-21T06:26:15.026Z,11.97
2017-12-21T06:28:42.699Z,14.97
2017-12-21T06:31:10.306Z,25.30
2017-12-21T06:33:37.912Z,49.13
2017-12-21T06:36:05.555Z,22.90
2017-12-21T06:38:33.162Z,72.77
2017-12-21T06:41:00.824Z,28.13
2017-12-21T06:43:28.539Z,22.20
2017-12-21T06:45:56.140Z,19.27
2017-12-21T06:48:23.743Z,19.80
2017-12-21T06:50:51.427Z,18.30
2017-12-21T06:53:19.088Z,25.93
2017-12-21T06:55:46.691Z,29.00
2017-12-21T06:58:14.415Z,14.57
2017-12-21T07:00:42.015Z,14.57
2017-12-21T07:03:09.675Z,50.87
2017-12-21T07:05:37.330Z,21.97
2017-12-21T07:08:04.992Z,15.33
2017-12-21T07:10:32.649Z,11.43
2017-12-21T07:13:00.326Z,12.83
2017-12-21T07:15:27.930Z,31.80
2017-12-21T07:17:55.531Z,16.00
2017-12-21T07:20:23.183Z,49.47
2017-12-21T07:22:50.783Z,34.10
2017-12-21T07:25:18.442Z,21.80
2017-12-21T07:27:46.092Z,17.90
2017-12-21T07:30:13.695Z,19.13
2017-12-21T07:32:41.358Z,19.70
2017-12-21T07:35:09.015Z,16.00
2017-12-21T07:37:36.617Z,13.50
2017-12-21T07:40:04.219Z,14.40
2017-12-21T07:42:31.870Z,18.63
2017-12-21T07:44:59.471Z,21.37
2017-12-21T07:47:27.070Z,15.53
2017-12-21T07:49:54.783Z,12.60
2017-12-21T07:52:22.383Z,10.00
2017-12-21T07:54:49.983Z,12.17
2017-12-21T07:57:17.703Z,14.13
2017-12-21T07:59:45.307Z,15.93
2017-12-21T08:02:12.911Z,17.97
2017-12-21T08:04:40.642Z,19.33
2017-12-21T08:07:08.244Z,21.57
2017-12-21T08:09:35.945Z,21.57
2017-12-21T08:12:03.659Z,14.57
2017-12-21T08:14:31.319Z,13.93
2017-12-21T08:16:59.026Z,11.30
2017-12-21T08:19:26.731Z,13.90
2017-12-21T08:21:54.338Z,14.03
2017-12-21T08:24:21.999Z,14.57
2017-12-21T08:26:49.743Z,11.57
2017-12-21T08:29:17.343Z,13.37
2017-12-21T08:31:44.942Z,14.13
2017-12-21T08:34:12.653Z,12.10
2017-12-21T08:36:40.320Z,10.47
2017-12-21T08:39:08.003Z,13.00
2017-12-21T08:41:35.741Z,10.20
2017-12-21T08:44:03.411Z,10.73
2017-12-21T08:46:31.013Z,10.20
2017-12-21T08:48:58.845Z,10.77
2017-12-21T08:51:26.447Z,10.33
2017-12-21T08:53:54.038Z,9.80
2017-12-21T08:56:21.706Z,12.57
2017-12-21T08:58:49.306Z,12.60
2017-12-21T09:01:16.967Z,13.07
2017-12-21T09:03:44.651Z,13.10
2017-12-21T09:06:12.311Z,11.83
2017-12-21T09:08:39.907Z,14.27
2017-12-21T09:11:07.568Z,13.77
2017-12-21T09:13:35.231Z,10.40
2017-12-21T09:16:02.830Z,13.20
2017-12-21T09:18:30.483Z,16.20
2017-12-21T09:20:58.087Z,11.20
2017-12-21T09:23:25.695Z,14.50
2017-12-21T09:25:53.451Z,11.53
2017-12-21T09:28:21.119Z,13.20
2017-12-21T09:30:48.722Z,15.70
2017-12-21T09:33:16.379Z,16.53
2017-12-21T09:35:43.991Z,19.10
2017-12-21T09:38:11.655Z,14.80
2017-12-21T09:40:39.378Z,10.00
2017-12-21T09:43:07.052Z,11.47
2017-12-21T09:45:34.655Z,12.80
2017-12-21T09:48:02.343Z,11.20
2017-12-21T09:50:29.943Z,9.70
2017-12-21T09:52:57.535Z,9.23
2017-12-21T09:55:25.191Z,9.63
2017-12-21T09:57:52.782Z,8.70
2017-12-21T10:00:20.387Z,8.40
2017-12-21T10:02:48.107Z,12.93
2017-12-21T10:05:15.711Z,12.40
2017-12-21T10:07:43.367Z,11.20
2017-12-21T10:10:11.047Z,9.83
2017-12-21T10:12:38.639Z,10.30
2017-12-21T10:15:06.251Z,11.80
2017-12-21T10:17:33.969Z,11.27
2017-12-21T10:20:01.583Z,11.70
2017-12-21T10:22:29.178Z,11.70
2017-12-21T10:24:56.832Z,12.03
2017-12-21T10:27:24.491Z,13.20
2017-12-21T10:29:52.106Z,12.10
2017-12-21T10:32:19.758Z,11.50
2017-12-21T10:34:47.361Z,11.70
2017-12-21T10:37:14.961Z,12.37
2017-12-21T10:39:42.615Z,10.10
2017-12-21T10:42:10.223Z,12.40
2017-12-21T10:44:37.821Z,8.83
2017-12-21T10:47:05.559Z,10.27
2017-12-21T10:49:33.219Z,12.97
2017-12-21T10:52:00.814Z,10.30
2017-12-21T10:54:28.495Z,12.37
2017-12-21T10:56:56.091Z,9.53
2017-12-21T10:59:23.750Z,12.27
2017-12-21T11:01:51.402Z,14.93
2017-12-21T11:04:19.002Z,12.93
2017-12-21T11:06:46.663Z,14.80
2017-12-21T11:09:14.318Z,10.70
2017-12-21T11:11:41.923Z,11.50
2017-12-21T11:14:09.596Z,10.63
2017-12-21T11:16:37.250Z,10.30
2017-12-21T11:19:04.847Z,9.87
2017-12-21T11:21:32.455Z,13.30
2017-12-21T11:24:00.195Z,13.30
2017-12-21T11:26:27.794Z,10.13
2017-12-21T11:28:55.455Z,9.47
2017-12-21T11:31:23.164Z,7.50
2017-12-21T11:33:50.834Z,12.97
2017-12-21T11:36:18.435Z,12.33
2017-12-21T11:38:46.096Z,9.47
2017-12-21T11:41:13.767Z,11.13
2017-12-21T11:43:42.239Z,10.93
2017-12-21T11:46:09.951Z,11.20
2017-12-21T11:48:37.551Z,9.43
2017-12-21T11:51:05.147Z,6.97
2017-12-21T11:53:32.813Z,11.00
2017-12-21T11:56:00.475Z,10.07
2017-12-21T11:58:28.070Z,11.53
2017-12-21T12:00:55.783Z,12.07
2017-12-21T12:03:23.382Z,13.70
2017-12-21T12:05:51.051Z,12.87
2017-12-21T12:08:18.715Z,19.10
2017-12-21T12:10:46.314Z,15.13
2017-12-21T12:13:13.918Z,17.57
2017-12-21T12:15:41.631Z,18.53
2017-12-21T12:18:09.236Z,19.87
2017-12-21T12:20:36.852Z,22.77
2017-12-21T12:23:04.559Z,16.97
2017-12-21T12:25:32.252Z,16.90
2017-12-21T12:27:59.921Z,15.60
2017-12-21T12:30:27.639Z,15.87
2017-12-21T12:32:55.248Z,20.00
2017-12-21T12:35:22.851Z,15.57
2017-12-21T12:37:50.567Z,15.80
2017-12-21T12:40:18.162Z,15.60
2017-12-21T12:42:45.913Z,12.40
2017-12-21T12:45:13.568Z,17.10
2017-12-21T12:47:41.183Z,27.93
2017-12-21T12:50:08.791Z,19.00
2017-12-21T12:52:36.438Z,15.30
2017-12-21T12:55:04.062Z,16.90
2017-12-21T12:57:31.718Z,34.17
2017-12-21T12:59:59.427Z,18.00
2017-12-21T13:02:27.031Z,15.47
2017-12-21T13:04:54.638Z,17.00
2017-12-21T13:07:22.319Z,19.40
2017-12-21T13:09:49.989Z,17.43
2017-12-21T13:12:17.643Z,19.07
2017-12-21T13:14:45.304Z,18.43
2017-12-21T13:17:12.913Z,21.23
2017-12-21T13:19:40.588Z,18.90
2017-12-21T13:22:08.327Z,25.83
2017-12-21T13:24:35.927Z,16.97
2017-12-21T13:27:03.587Z,15.80
2017-12-21T13:29:31.278Z,22.63
2017-12-21T13:31:58.911Z,21.33
2017-12-21T13:34:26.575Z,17.70
2017-12-21T13:36:54.328Z,16.70
2017-12-21T13:39:21.986Z,17.40
2017-12-21T13:41:49.647Z,28.40
2017-12-21T13:44:17.307Z,17.77
2017-12-21T13:46:44.973Z,15.57
2017-12-21T13:49:12.631Z,15.40
2017-12-21T13:51:40.282Z,17.00
2017-12-21T13:54:07.887Z,16.60
2017-12-21T13:56:35.482Z,18.40
2017-12-21T13:59:03.199Z,18.60
2017-12-21T14:01:30.879Z,19.30
2017-12-21T14:03:58.547Z,20.93
2017-12-21T14:06:26.207Z,22.50
2017-12-21T14:08:53.814Z,26.33
2017-12-21T14:11:21.419Z,27.63
2017-12-21T14:13:49.074Z,22.10
2017-12-21T14:16:16.735Z,17.50
2017-12-21T14:18:44.334Z,17.17
2017-12-21T14:21:11.982Z,28.50
2017-12-21T14:23:39.614Z,16.67
2017-12-21T14:26:07.211Z,20.57
2017-12-21T14:28:34.870Z,24.30
2017-12-21T14:31:02.471Z,21.50
2017-12-21T14:33:30.127Z,24.07
2017-12-21T14:35:57.782Z,23.97
2017-12-21T14:38:25.387Z,25.10
2017-12-21T14:40:53.047Z,21.00
2017-12-21T14:43:20.831Z,23.80
2017-12-21T14:45:48.434Z,22.63
2017-12-21T14:48:16.097Z,26.40
2017-12-21T14:50:43.751Z,22.00
2017-12-21T14:53:11.352Z,25.67
2017-12-21T14:55:39.015Z,26.73
2017-12-21T14:58:06.734Z,29.00
2017-12-21T15:00:34.339Z,26.70
2017-12-21T15:03:01.999Z,28.20
2017-12-21T15:05:29.667Z,28.40
2017-12-21T15:07:57.337Z,28.30
2017-12-21T15:10:24.943Z,26.00
2017-12-21T15:12:52.693Z,32.67
2017-12-21T15:15:20.356Z,30.47
2017-12-21T15:17:47.970Z,31.50
2017-12-21T15:20:15.627Z,30.27
2017-12-21T15:22:43.283Z,27.73
2017-12-21T15:25:10.962Z,27.93
2017-12-21T15:27:38.627Z,23.10
2017-12-21T15:30:06.287Z,27.80
2017-12-21T15:32:33.907Z,23.67
2017-12-21T15:35:01.559Z,22.97
2017-12-21T15:37:29.223Z,26.77
2017-12-21T15:39:56.818Z,21.90
2017-12-21T15:42:24.463Z,22.70
2017-12-21T15:44:52.095Z,22.90
2017-12-21T15:47:19.760Z,25.53
2017-12-21T15:49:47.411Z,29.03
2017-12-21T15:52:15.031Z,29.33
2017-12-21T15:54:42.634Z,26.00
2017-12-21T15:57:10.287Z,26.73
2017-12-21T15:59:37.901Z,27.80
2017-12-21T16:02:05.509Z,26.37
2017-12-21T16:04:33.170Z,27.63
2017-12-21T16:07:00.835Z,26.73
2017-12-21T16:09:28.505Z,21.60
2017-12-21T16:11:56.166Z,20.70
2017-12-21T16:14:23.833Z,22.77
2017-12-21T16:16:51.442Z,26.33
2017-12-21T16:19:19.099Z,27.27
2017-12-21T16:21:46.702Z,25.67
2017-12-21T16:24:14.361Z,23.20
2017-12-21T16:26:42.018Z,23.83
2017-12-21T16:29:09.728Z,23.60
2017-12-21T16:31:37.337Z,23.60
2017-12-21T16:34:04.986Z,23.40
2017-12-21T16:36:32.592Z,24.07
2017-12-21T16:39:00.199Z,24.63
2017-12-21T16:41:27.859Z,28.37
2017-12-21T16:43:55.524Z,30.40
2017-12-21T16:46:23.140Z,27.13
2017-12-21T16:48:50.818Z,27.77
2017-12-21T16:51:18.491Z,25.37
2017-12-21T16:53:46.095Z,25.87
2017-12-21T16:56:13.813Z,31.00
2017-12-21T16:58:41.423Z,28.10
2017-12-21T17:01:09.030Z,24.70
2017-12-21T17:03:36.776Z,23.53
2017-12-21T17:06:04.540Z,24.57
2017-12-21T17:08:32.146Z,22.83
2017-12-21T17:11:01.120Z,26.03
2017-12-21T17:13:28.723Z,24.60
2017-12-21T17:15:56.327Z,23.80
2017-12-21T17:18:24.079Z,26.90
2017-12-21T17:20:51.724Z,31.33
2017-12-21T17:23:19.403Z,104.10
2017-12-21T17:25:47.076Z,33.03
2017-12-21T17:28:14.759Z,42.30
2017-12-21T17:30:42.367Z,32.60
2017-12-21T17:33:10.036Z,28.33
2017-12-21T17:35:37.655Z,30.90
2017-12-21T17:38:05.275Z,33.00
2017-12-21T17:40:32.944Z,32.83
2017-12-21T17:43:00.557Z,34.33
2017-12-21T17:45:28.171Z,30.03
2017-12-21T17:47:55.888Z,33.27
2017-12-21T17:50:23.491Z,38.80
2017-12-21T17:52:51.155Z,32.63
2017-12-21T17:55:18.812Z,34.43
2017-12-21T17:57:46.474Z,32.47
2017-12-21T18:00:14.198Z,34.07
2017-12-21T18:02:41.919Z,35.20
2017-12-21T18:05:09.583Z,33.50
2017-12-21T18:07:37.287Z,35.03
2017-12-21T18:10:04.944Z,35.37
2017-12-21T18:12:32.560Z,29.87
2017-12-21T18:15:00.233Z,27.93
2017-12-21T18:17:28.824Z,28.10
2017-12-21T18:19:56.427Z,25.83
2017-12-21T18:22:24.148Z,23.77
2017-12-21T18:24:51.815Z,19.00
2017-12-21T18:27:19.443Z,24.23
2017-12-21T18:29:47.069Z,21.47
2017-12-21T18:32:14.783Z,25.30
2017-12-21T18:34:42.447Z,21.80
2017-12-21T18:37:10.124Z,22.10
2017-12-21T18:39:37.779Z,24.27
2017-12-21T18:42:05.394Z,25.77
2017-12-21T18:44:33.010Z,24.00
2017-12-21T18:47:00.732Z,24.43
2017-12-21T18:49:28.342Z,24.23
2017-12-21T18:51:56.011Z,26.87
2017-12-21T18:54:32.578Z,24.07
2017-12-21T18:57:00.234Z,25.90
2017-12-21T18:59:27.961Z,26.00
2017-12-21T19:01:55.636Z,81.73
2017-12-21T19:04:23.349Z,28.70
2017-12-21T19:06:51.023Z,27.67
2017-12-21T19:09:18.769Z,27.67
2017-12-21T19:11:46.375Z,30.23
2017-12-21T19:14:13.991Z,29.80
2017-12-21T19:16:41.647Z,31.77
2017-12-21T19:19:09.317Z,26.13
2017-12-21T19:21:36.989Z,27.43
2017-12-21T19:24:04.740Z,30.47
2017-12-21T19:26:32.350Z,32.40
2017-12-21T19:28:59.961Z,33.93
2017-12-21T19:31:27.646Z,30.60
2017-12-21T19:33:55.286Z,29.73
2017-12-21T19:36:22.948Z,25.07
2017-12-21T19:38:50.608Z,26.67
2017-12-21T19:41:18.215Z,25.67
2017-12-21T19:43:45.822Z,24.60
2017-12-21T19:46:13.519Z,25.20
2017-12-21T19:48:41.134Z,19.40
2017-12-21T19:51:08.778Z,20.00
2017-12-21T19:53:36.438Z,20.27
2017-12-21T19:56:04.051Z,26.40
2017-12-21T19:58:31.663Z,37.40
2017-12-21T20:00:59.425Z,39.60
2017-12-21T20:03:27.027Z,38.93
2017-12-21T20:05:54.696Z,37.50
2017-12-21T20:08:22.362Z,61.00
2017-12-21T20:10:50.033Z,35.73
2017-12-21T20:13:17.634Z,32.30
2017-12-21T20:15:45.364Z,27.40
2017-12-21T20:18:12.975Z,22.57
2017-12-21T20:20:40.583Z,24.60
2017-12-21T20:23:08.247Z,25.20
2017-12-21T20:25:35.863Z,28.03
2017-12-21T20:28:03.526Z,24.50
2017-12-21T20:30:31.249Z,24.90
2017-12-21T20:32:58.860Z,24.20
2017-12-21T20:35:26.475Z,22.20
2017-12-21T20:38:07.951Z,21.03
2017-12-21T20:40:35.632Z,20.10
2017-12-21T20:43:03.392Z,22.30
2017-12-21T20:45:31.151Z,21.97
2017-12-21T20:47:58.840Z,24.50
2017-12-21T20:50:26.514Z,23.60
2017-12-21T20:52:54.265Z,23.23
2017-12-21T20:55:22.000Z,29.70
2017-12-21T20:57:49.678Z,29.67
2017-12-21T21:00:17.482Z,32.03
2017-12-21T21:02:45.159Z,39.80
2017-12-21T21:05:12.834Z,34.60
2017-12-21T21:07:40.566Z,30.03
2017-12-21T21:10:08.319Z,34.17
2017-12-21T21:12:36.003Z,31.80
2017-12-21T21:15:04.243Z,34.40
2017-12-21T21:17:32.152Z,41.00
2017-12-21T21:19:59.838Z,29.80
2017-12-21T21:22:27.638Z,36.30
2017-12-21T21:24:55.361Z,34.23
2017-12-21T21:27:23.044Z,31.90
2017-12-21T21:29:50.771Z,31.40
2017-12-21T21:32:18.509Z,32.47
2017-12-21T21:34:46.122Z,29.83
2017-12-21T21:37:13.843Z,30.10
2017-12-21T21:39:41.517Z,28.00
2017-12-21T21:42:09.130Z,24.23
2017-12-21T21:44:36.790Z,23.07
2017-12-21T21:47:04.410Z,23.90
2017-12-21T21:49:32.075Z,25.00
2017-12-21T21:51:59.743Z,23.20
2017-12-21T21:54:27.346Z,23.70
2017-12-21T21:56:54.962Z,21.57
2017-12-21T21:59:22.731Z,23.60
2017-12-21T22:01:50.351Z,21.83
2017-12-21T22:04:17.955Z,23.60
2017-12-21T22:06:45.614Z,23.43
2017-12-21T22:09:13.226Z,22.80
2017-12-21T22:11:40.840Z,24.83
2017-12-21T22:14:08.627Z,25.60
2017-12-21T22:16:36.239Z,28.37
2017-12-21T22:19:03.847Z,29.30
2017-12-21T22:21:31.569Z,26.87
2017-12-21T22:23:59.253Z,27.63
2017-12-21T22:26:26.916Z,27.03
2017-12-21T22:28:54.644Z,25.93
2017-12-21T22:31:22.311Z,25.77
2017-12-21T22:33:49.919Z,25.50
2017-12-21T22:36:17.586Z,25.77
2017-12-21T22:38:45.261Z,26.37
2017-12-21T22:41:12.922Z,24.40
2017-12-21T22:43:40.647Z,24.37
2017-12-21T22:46:08.311Z,23.33
2017-12-21T22:48:35.918Z,21.27
2017-12-21T22:51:03.578Z,21.90
2017-12-21T22:53:31.247Z,20.87
2017-12-21T22:55:58.859Z,20.97
2017-12-21T22:58:26.587Z,22.97
2017-12-21T23:00:54.229Z,22.50
2017-12-21T23:03:21.892Z,22.97
2017-12-21T23:05:49.611Z,22.10
2017-12-21T23:08:17.219Z,20.07
2017-12-21T23:10:44.879Z,22.90
2017-12-21T23:13:12.591Z,20.47
2017-12-21T23:15:40.209Z,19.93
2017-12-21T23:18:07.818Z,18.50
2017-12-21T23:20:35.539Z,18.97
2017-12-21T23:23:03.156Z,21.17
2017-12-21T23:25:30.775Z,22.30
2017-12-21T23:27:58.515Z,19.30
2017-12-21T23:30:26.125Z,22.83
2017-12-21T23:32:53.738Z,23.17
2017-12-21T23:35:21.455Z,24.03
2017-12-21T23:37:49.059Z,23.13
2017-12-21T23:40:16.666Z,22.97
2017-12-21T23:42:44.327Z,20.63
2017-12-21T23:45:11.934Z,21.17
2017-12-21T23:47:39.538Z,23.73
2017-12-21T23:50:07.251Z,23.17
2017-12-21T23:52:34.889Z,23.50
2017-12-21T23:55:02.529Z,22.97
2017-12-21T23:57:30.187Z,21.47
2017-12-21T23:59:57.794Z,20.00
